Boston, PA

11:42 AM EDT on July 29, 2016 (GMT -0400)
White Oak, PA 15131-1531 | | Change Station

Elev 1076 ft 40.35 °N, 79.82 °W | Updated 0 second ago

Overcast
Overcast
77.0 °F
Feels Like 79 °F
N
0.2
Wind Variable Wind from West
Gusts 4.9 mph

Today
High -- | Low -- °F
--% Chance of Precip.
Yesterday
High -- | Low -- °F
Precip. -- in
Pressure 29.98 in
Visibility 9.0 miles
Clouds Scattered Clouds 1300 ft
Overcast 1900 ft
Heat Index 79 °F
Dew Point 70 °F
Humidity 79%
Rainfall 0.01 in
Snow Depth Not available.
6:14 AM 8:36 PM
Waning Crescent, 21% visible
SPECI KAGC 291524Z 21004KT 9SM SCT013 OVC019 23/19 A2998 RMK AO2 T02330189
Pressure 29.98 in
Visibility 9.0 miles
Clouds Scattered Clouds 1300 ft
Overcast 1900 ft
Heat Index 79 °F
Dew Point 70 °F
Humidity 79%
Rainfall 0.01 in
Snow Depth Not available.
6:14 AM 8:36 PM
Waning Crescent, 21% visible
SPECI KAGC 291524Z 21004KT 9SM SCT013 OVC019 23/19 A2998 RMK AO2 T02330189

10-Day Weather Forecast

Almanac

Astronomy

Jul. 29, 2016 Rise Set
Actual Time
Civil Twilight
Nautical Twilight
Astronomical Twilight
Moon
Length of Visible Light
Length of Day
Tomorrow will be .
, % of the Moon is Illuminated

Today's Extremes

State Highs State Lows

Community

WunderPhotos

Upload Photos

1,928,348 photos uploaded!

WunderBlog® & News

Nearby

Air Quality

  Air Quality AQ Index Pollutant
Not available.

Snow Depth

Station Depth Elevation

Earthquake Activity

City Distance Mag. Time & Date
Minimum magnitude displayed is 2.5.

Coastal Water Temperatures

Place Temperature

Stations

Nearby Weather Stations

Station Location Temp. Windchill Dew Point Humidity Wind Precip. Elev Updated Type
                   

Watches & Warnings

There are currently no watches in effect.